Time;durP1;ratioP1;P1;durP2;ratioP2;P2;SDS_P1;SDS_P2;PMS_P1;PMS_P2;Temp;Humidity;BMP_temperature;BMP_pressure;BME280_temperature;BME280_humidity;BME280_pressure;Samples;Min_cycle;Max_cycle;Signal;HPM_P1;HPM_P2
2020/12/20 00:01:20;;;;;;;23.33;12.07;;;2.00;99.90;;;;;;5012127;28;20049;-71
2020/12/20 00:03:48;;;;;;;24.63;12.50;;;2.00;99.90;;;;;;5012537;28;20061;-72
2020/12/20 00:06:15;;;;;;;22.17;12.70;;;2.00;99.90;;;;;;5012191;28;20053;-72
2020/12/20 00:08:41;;;;;;;25.75;12.48;;;2.00;99.90;;;;;;4994317;28;20385;-72
2020/12/20 00:11:08;;;;;;;26.88;13.73;;;2.00;99.90;;;;;;5011472;28;20049;-72
2020/12/20 00:13:34;;;;;;;25.02;12.43;;;2.00;99.90;;;;;;5011320;28;20049;-71
2020/12/20 00:16:02;;;;;;;21.70;11.32;;;1.90;99.90;;;;;;4974735;28;20457;-72
2020/12/20 00:18:28;;;;;;;22.33;11.65;;;1.90;99.90;;;;;;4955746;28;20481;-70
2020/12/20 00:20:55;;;;;;;21.25;11.40;;;1.90;99.90;;;;;;4971674;28;20493;-71
2020/12/20 00:23:21;;;;;;;19.27;10.63;;;1.90;99.90;;;;;;4971598;28;20047;-71
2020/12/20 00:25:48;;;;;;;22.35;10.85;;;1.90;99.90;;;;;;4954911;28;20407;-70
2020/12/20 00:28:14;;;;;;;19.98;11.73;;;1.90;99.90;;;;;;4972665;28;20047;-70
2020/12/20 00:30:41;;;;;;;20.70;11.23;;;1.90;99.90;;;;;;4972511;28;20107;-70
2020/12/20 00:33:07;;;;;;;19.17;11.00;;;1.90;99.90;;;;;;4971716;28;20054;-72
2020/12/20 00:35:34;;;;;;;21.88;11.43;;;1.90;99.90;;;;;;4973300;28;20484;-71
2020/12/20 00:38:01;;;;;;;20.42;10.95;;;1.90;99.90;;;;;;4971896;28;20054;-70
2020/12/20 00:40:27;;;;;;;20.25;11.63;;;1.90;99.90;;;;;;4960330;28;20073;-69
2020/12/20 00:42:54;;;;;;;19.75;11.00;;;1.90;99.90;;;;;;4971490;28;20043;-70
2020/12/20 00:45:20;;;;;;;22.33;12.40;;;1.90;99.90;;;;;;4972570;28;20058;-70
2020/12/20 00:47:47;;;;;;;18.63;10.73;;;1.90;99.90;;;;;;4972391;28;20051;-71
2020/12/20 00:50:14;;;;;;;20.63;11.20;;;1.90;99.90;;;;;;4971102;28;20485;-70
2020/12/20 00:52:40;;;;;;;20.67;11.73;;;1.80;99.90;;;;;;4971480;28;20464;-72
2020/12/20 00:55:07;;;;;;;25.13;13.98;;;1.90;99.90;;;;;;4972664;28;20134;-71
2020/12/20 00:57:34;;;;;;;27.90;15.27;;;1.90;99.90;;;;;;4971241;28;20049;-69
2020/12/20 01:00:00;;;;;;;20.20;11.10;;;1.80;99.90;;;;;;4973625;28;20053;-72
2020/12/20 01:02:27;;;;;;;20.80;11.45;;;1.80;99.90;;;;;;4972829;28;20054;-72
2020/12/20 01:04:53;;;;;;;19.77;11.75;;;1.70;99.90;;;;;;4973842;28;20054;-70
2020/12/20 01:07:20;;;;;;;22.83;12.75;;;1.70;99.90;;;;;;4965787;28;20066;-70
2020/12/20 01:09:47;;;;;;;20.08;11.05;;;1.80;99.90;;;;;;4955435;28;20094;-70
2020/12/20 01:12:13;;;;;;;21.23;11.48;;;1.70;99.90;;;;;;4972917;28;20065;-71
2020/12/20 01:14:39;;;;;;;20.48;10.93;;;1.70;99.90;;;;;;4967216;28;20065;-70
2020/12/20 01:17:07;;;;;;;19.63;10.80;;;1.70;99.90;;;;;;4967059;28;20076;-71
2020/12/20 01:19:38;;;;;;;18.83;10.45;;;1.70;99.90;;;;;;4966239;28;20047;-70
2020/12/20 01:22:05;;;;;;;19.63;11.05;;;1.70;99.90;;;;;;4970030;28;20631;-69
2020/12/20 01:24:31;;;;;;;19.88;11.07;;;1.70;99.90;;;;;;4965052;28;20065;-71
2020/12/20 01:26:58;;;;;;;18.88;10.63;;;1.60;99.90;;;;;;4970987;28;20567;-70
2020/12/20 01:29:24;;;;;;;18.80;10.77;;;1.60;99.90;;;;;;4972271;28;20142;-70
2020/12/20 01:31:51;;;;;;;20.33;10.95;;;1.60;99.90;;;;;;4952454;28;20062;-70
2020/12/20 01:34:17;;;;;;;18.58;10.55;;;1.60;99.90;;;;;;4971894;28;20060;-71
2020/12/20 01:36:44;;;;;;;19.25;10.75;;;1.70;99.90;;;;;;4971336;28;20503;-70
2020/12/20 01:39:11;;;;;;;17.38;10.27;;;1.70;99.90;;;;;;4970302;28;20059;-70
2020/12/20 01:41:38;;;;;;;18.17;10.45;;;1.70;99.90;;;;;;4976958;28;20126;-71
2020/12/20 01:44:06;;;;;;;17.90;10.30;;;1.70;99.90;;;;;;4973430;28;20046;-70
2020/12/20 01:46:33;;;;;;;16.17;9.32;;;1.70;99.90;;;;;;4975546;28;20057;-70
2020/12/20 01:49:02;;;;;;;19.92;10.10;;;1.70;99.90;;;;;;4958389;28;20495;-69
2020/12/20 01:51:29;;;;;;;18.92;10.95;;;1.70;99.90;;;;;;4974270;28;20046;-70
2020/12/20 01:53:55;;;;;;;26.92;15.15;;;1.70;99.90;;;;;;4975434;28;20051;-70
2020/12/20 01:56:22;;;;;;;25.90;14.20;;;1.70;99.90;;;;;;4975297;28;20055;-71
2020/12/20 01:58:49;;;;;;;23.15;12.38;;;1.70;99.90;;;;;;4975392;28;20051;-70
2020/12/20 02:01:15;;;;;;;17.85;9.60;;;1.70;99.90;;;;;;4974915;28;20057;-70
2020/12/20 02:03:43;;;;;;;18.48;10.52;;;1.70;99.90;;;;;;4975180;28;20039;-71
2020/12/20 02:06:13;;;;;;;15.98;9.68;;;1.70;99.90;;;;;;4975407;28;20046;-71
2020/12/20 02:08:40;;;;;;;19.67;10.32;;;1.70;99.90;;;;;;4975268;28;20062;-71
2020/12/20 02:11:11;;;;;;;17.17;10.13;;;1.70;99.90;;;;;;4973837;28;20489;-70
2020/12/20 02:13:55;;;;;;;17.27;10.20;;;1.70;99.90;;;;;;4975039;28;20461;-70
2020/12/20 02:16:23;;;;;;;16.10;9.90;;;1.70;99.90;;;;;;4973558;28;20051;-70
2020/12/20 02:18:51;;;;;;;18.92;10.90;;;1.70;99.90;;;;;;4975026;28;20051;-71
2020/12/20 02:21:19;;;;;;;18.42;10.18;;;1.60;99.90;;;;;;4974848;28;20130;-70
2020/12/20 02:23:47;;;;;;;14.65;9.60;;;1.60;99.90;;;;;;4975412;28;20047;-68
2020/12/20 02:26:16;;;;;;;16.48;9.57;;;1.70;99.90;;;;;;4974346;28;20053;-70
2020/12/20 02:28:42;;;;;;;17.10;9.95;;;1.60;99.90;;;;;;4975197;28;20073;-71
2020/12/20 02:31:09;;;;;;;16.98;10.52;;;1.60;99.90;;;;;;4974860;28;20050;-70
2020/12/20 02:33:36;;;;;;;16.20;10.10;;;1.60;99.90;;;;;;4975309;28;20134;-69
2020/12/20 02:36:03;;;;;;;17.33;10.57;;;1.50;99.90;;;;;;4974740;28;20043;-71
2020/12/20 02:38:30;;;;;;;20.02;10.85;;;1.50;99.90;;;;;;4973936;28;20054;-72
2020/12/20 02:40:57;;;;;;;15.80;9.75;;;1.50;99.90;;;;;;4952235;28;20055;-72
2020/12/20 02:43:25;;;;;;;16.50;9.95;;;1.50;99.90;;;;;;4974352;28;20074;-71
2020/12/20 02:45:51;;;;;;;17.95;10.75;;;1.60;99.90;;;;;;4974754;28;20062;-70
2020/12/20 02:48:17;;;;;;;19.75;11.20;;;1.60;99.90;;;;;;4957221;28;20053;-70
2020/12/20 02:50:44;;;;;;;17.63;9.85;;;1.60;99.90;;;;;;4957295;28;20420;-71
2020/12/20 02:53:11;;;;;;;19.13;10.85;;;1.70;99.90;;;;;;4973787;28;20513;-71
2020/12/20 02:55:37;;;;;;;20.48;11.02;;;1.70;99.90;;;;;;4974256;28;20047;-70
2020/12/20 02:58:04;;;;;;;18.40;10.45;;;1.70;99.90;;;;;;4971781;28;20102;-70
2020/12/20 03:00:31;;;;;;;18.10;10.52;;;1.70;99.90;;;;;;4973547;28;20489;-69
2020/12/20 03:02:58;;;;;;;17.08;9.93;;;1.60;99.90;;;;;;4962392;28;20051;-71
2020/12/20 03:05:25;;;;;;;19.08;10.93;;;1.60;99.90;;;;;;4974425;28;20085;-71
2020/12/20 03:07:51;;;;;;;18.98;10.80;;;1.60;99.90;;;;;;4972529;28;20050;-71
2020/12/20 03:10:17;;;;;;;18.77;11.15;;;1.60;99.90;;;;;;4973175;28;20531;-71
2020/12/20 03:12:44;;;;;;;18.15;10.50;;;1.60;99.90;;;;;;4973740;28;20093;-72
2020/12/20 03:15:11;;;;;;;17.73;10.70;;;1.60;99.90;;;;;;4973857;28;20054;-71
2020/12/20 03:17:38;;;;;;;17.23;10.20;;;1.70;99.90;;;;;;4974057;28;20056;-71
2020/12/20 03:20:05;;;;;;;18.05;10.82;;;1.70;99.90;;;;;;4974398;28;20051;-71
2020/12/20 03:22:32;;;;;;;17.33;9.85;;;1.70;99.90;;;;;;4973392;28;20053;-71
2020/12/20 03:24:58;;;;;;;21.08;11.32;;;1.70;99.90;;;;;;4974448;28;20137;-72
2020/12/20 03:27:25;;;;;;;21.77;11.45;;;1.70;99.90;;;;;;4973022;28;20187;-72
2020/12/20 03:29:51;;;;;;;19.85;11.43;;;1.70;99.90;;;;;;4973991;28;20054;-71
2020/12/20 03:32:18;;;;;;;21.90;11.82;;;1.70;99.90;;;;;;4973244;28;20051;-71
2020/12/20 03:34:45;;;;;;;18.60;11.18;;;1.70;99.90;;;;;;4972523;28;20054;-72
2020/12/20 03:37:12;;;;;;;20.85;11.57;;;1.80;99.90;;;;;;4973703;28;20065;-71
2020/12/20 03:39:38;;;;;;;20.27;11.32;;;1.70;99.90;;;;;;4973506;28;20047;-71
2020/12/20 03:42:05;;;;;;;21.10;11.93;;;1.80;99.90;;;;;;4972985;28;20051;-71
2020/12/20 03:44:31;;;;;;;18.85;11.40;;;1.70;99.90;;;;;;4973544;28;20081;-72
2020/12/20 03:46:58;;;;;;;21.38;12.02;;;1.70;99.90;;;;;;4973226;28;20057;-71
2020/12/20 03:49:24;;;;;;;19.80;11.85;;;1.70;99.90;;;;;;4973918;28;20519;-72
2020/12/20 03:51:51;;;;;;;19.80;11.68;;;1.70;99.90;;;;;;4971789;28;20054;-71
2020/12/20 03:54:17;;;;;;;21.77;12.18;;;1.70;99.90;;;;;;4973267;28;20066;-71
2020/12/20 03:56:44;;;;;;;21.65;12.40;;;1.80;99.90;;;;;;4972537;28;20053;-71
2020/12/20 03:59:10;;;;;;;21.65;11.75;;;1.70;99.90;;;;;;4973758;28;20054;-71
2020/12/20 04:01:37;;;;;;;21.58;11.45;;;1.70;99.90;;;;;;4971817;28;20039;-71
2020/12/20 04:04:03;;;;;;;22.45;12.27;;;1.70;99.90;;;;;;4973279;28;20138;-70
2020/12/20 04:06:30;;;;;;;21.27;11.73;;;1.80;99.90;;;;;;4972214;28;20058;-71
2020/12/20 04:08:57;;;;;;;21.20;11.68;;;1.80;99.90;;;;;;4969595;28;20059;-72
2020/12/20 04:11:23;;;;;;;19.95;11.35;;;1.80;99.90;;;;;;4972768;28;20390;-70
2020/12/20 04:13:50;;;;;;;22.70;12.13;;;1.80;99.90;;;;;;4973387;28;20054;-70
2020/12/20 04:16:16;;;;;;;21.05;12.07;;;1.80;99.90;;;;;;4972922;28;20058;-70
2020/12/20 04:18:43;;;;;;;21.48;12.40;;;1.80;99.90;;;;;;4969767;28;20051;-70
2020/12/20 04:21:15;;;;;;;21.85;12.32;;;1.80;99.90;;;;;;4972838;28;20050;-69
2020/12/20 04:23:41;;;;;;;24.30;13.30;;;1.80;99.90;;;;;;4971727;28;20047;-70
2020/12/20 04:26:08;;;;;;;22.45;12.18;;;1.80;99.90;;;;;;4971326;28;20053;-71
2020/12/20 04:28:35;;;;;;;23.95;13.00;;;1.80;99.90;;;;;;4971244;28;20046;-69
2020/12/20 04:31:01;;;;;;;23.27;13.00;;;1.80;99.90;;;;;;4971279;28;20050;-70
2020/12/20 04:33:27;;;;;;;21.45;11.73;;;1.80;99.90;;;;;;4967764;28;20507;-70
2020/12/20 04:35:54;;;;;;;25.70;13.93;;;1.80;99.90;;;;;;4966656;28;20129;-70
2020/12/20 04:38:20;;;;;;;26.00;14.02;;;1.80;99.90;;;;;;4972311;28;20054;-71
2020/12/20 04:40:48;;;;;;;23.33;12.73;;;1.80;99.90;;;;;;4971844;28;20054;-70
2020/12/20 04:43:14;;;;;;;25.52;13.43;;;1.80;99.90;;;;;;4955338;28;20047;-70
2020/12/20 04:45:43;;;;;;;25.55;13.10;;;1.70;99.90;;;;;;4953912;29;20047;-71
2020/12/20 04:48:12;;;;;;;25.35;14.07;;;1.80;99.90;;;;;;4952760;29;20058;-71
2020/12/20 04:50:39;;;;;;;25.52;13.30;;;1.80;99.90;;;;;;4947496;28;20051;-70
2020/12/20 04:53:06;;;;;;;23.45;13.07;;;1.80;99.90;;;;;;4971000;28;20051;-70
2020/12/20 04:55:33;;;;;;;24.70;13.00;;;1.80;99.90;;;;;;4970514;28;20559;-71
2020/12/20 04:58:00;;;;;;;23.60;12.63;;;1.80;99.90;;;;;;4954041;28;20489;-69
2020/12/20 05:00:26;;;;;;;24.42;13.82;;;1.80;99.90;;;;;;4971747;28;20051;-70
2020/12/20 05:02:53;;;;;;;25.20;13.18;;;1.80;99.90;;;;;;4954040;28;20047;-70
2020/12/20 05:05:19;;;;;;;24.92;13.38;;;1.80;99.90;;;;;;4970143;28;20050;-70
2020/12/20 05:07:48;;;;;;;23.23;13.13;;;1.90;99.90;;;;;;4954679;28;20038;-70
2020/12/20 05:10:15;;;;;;;25.15;13.85;;;1.90;99.90;;;;;;4971860;28;20135;-71
2020/12/20 05:12:42;;;;;;;25.33;13.68;;;1.90;99.90;;;;;;4971129;28;20055;-71
2020/12/20 05:15:25;;;;;;;26.50;14.25;;;1.90;99.90;;;;;;4971416;28;20058;-71
2020/12/20 05:18:05;;;;;;;27.02;13.20;;;1.90;99.90;;;;;;4939632;28;20463;-71
2020/12/20 05:20:46;;;;;;;25.75;13.60;;;1.90;99.90;;;;;;4953802;28;20062;-71
2020/12/20 05:23:13;;;;;;;25.92;13.60;;;1.90;99.90;;;;;;4972076;28;20047;-71
2020/12/20 05:25:41;;;;;;;26.45;14.43;;;1.80;99.90;;;;;;4972206;28;20504;-70
2020/12/20 05:28:18;;;;;;;26.13;13.63;;;1.80;99.90;;;;;;4970108;28;20047;-70
2020/12/20 05:30:46;;;;;;;27.52;14.50;;;1.90;99.90;;;;;;4971251;28;20058;-70
2020/12/20 05:33:27;;;;;;;24.65;14.02;;;1.80;99.90;;;;;;4953235;28;20055;-72
2020/12/20 05:36:22;;;;;;;24.85;13.68;;;1.80;99.90;;;;;;4971296;28;20136;-71
2020/12/20 05:38:48;;;;;;;27.10;14.02;;;1.80;99.90;;;;;;4971249;28;20054;-71
2020/12/20 05:41:27;;;;;;;23.80;13.88;;;1.80;99.90;;;;;;4971017;28;20081;-71
2020/12/20 05:44:08;;;;;;;26.48;13.93;;;1.80;99.90;;;;;;4962092;28;20053;-71
2020/12/20 05:46:35;;;;;;;26.20;13.53;;;1.80;99.90;;;;;;4958556;28;20061;-70
2020/12/20 05:49:21;;;;;;;29.60;14.40;;;1.80;99.90;;;;;;4969735;28;20043;-71
2020/12/20 05:52:09;;;;;;;29.13;14.38;;;1.80;99.90;;;;;;4969343;28;20493;-70
2020/12/20 05:54:43;;;;;;;28.58;14.73;;;1.80;99.90;;;;;;4964869;28;20066;-71
2020/12/20 05:57:09;;;;;;;25.05;13.68;;;1.80;99.90;;;;;;4953687;28;20055;-71
2020/12/20 05:59:36;;;;;;;26.02;13.32;;;1.80;99.90;;;;;;4970700;28;20059;-71
2020/12/20 06:02:04;;;;;;;25.42;14.10;;;1.90;99.90;;;;;;4952741;28;20063;-71
2020/12/20 06:04:32;;;;;;;24.55;13.75;;;1.90;99.90;;;;;;4971362;28;20082;-71
2020/12/20 06:06:59;;;;;;;26.95;13.68;;;1.90;99.90;;;;;;4953123;28;20058;-71
2020/12/20 06:09:27;;;;;;;26.10;14.68;;;1.90;99.90;;;;;;4952914;28;20043;-71
2020/12/20 06:11:55;;;;;;;28.40;14.75;;;1.90;99.90;;;;;;4971041;28;20047;-71
2020/12/20 06:14:29;;;;;;;26.58;13.85;;;1.90;99.90;;;;;;4969644;28;20134;-71
2020/12/20 06:17:19;;;;;;;28.70;14.48;;;1.90;99.90;;;;;;4967716;28;20162;-70
2020/12/20 06:20:06;;;;;;;28.30;13.75;;;1.90;99.90;;;;;;4964427;28;20065;-71
2020/12/20 06:22:53;;;;;;;29.98;15.48;;;1.90;99.90;;;;;;4967582;28;20461;-70
2020/12/20 06:25:26;;;;;;;30.60;15.50;;;1.90;99.90;;;;;;4971534;28;20050;-71
2020/12/20 06:28:00;;;;;;;25.58;13.88;;;1.90;99.90;;;;;;4958818;28;20110;-70
2020/12/20 06:30:27;;;;;;;29.95;14.95;;;2.00;99.90;;;;;;4973128;28;20130;-71
2020/12/20 06:33:00;;;;;;;28.13;15.07;;;1.90;99.90;;;;;;4973006;28;20053;-70
2020/12/20 06:35:29;;;;;;;31.52;15.80;;;2.00;99.90;;;;;;4975114;28;20177;-71
2020/12/20 06:37:58;;;;;;;29.33;15.30;;;2.00;99.90;;;;;;4972711;28;20070;-71
2020/12/20 06:40:30;;;;;;;29.48;14.60;;;1.90;99.90;;;;;;4974829;28;20061;-70
2020/12/20 06:42:58;;;;;;;27.55;15.52;;;1.90;99.90;;;;;;4960583;28;20058;-71
2020/12/20 06:45:27;;;;;;;36.50;17.95;;;1.90;99.90;;;;;;4967867;28;20058;-71
2020/12/20 06:48:00;;;;;;;31.33;15.73;;;2.00;99.90;;;;;;4955246;29;20069;-70
2020/12/20 06:50:39;;;;;;;29.52;14.57;;;2.00;99.90;;;;;;4959656;28;20485;-71
2020/12/20 06:53:07;;;;;;;27.77;14.43;;;2.00;99.90;;;;;;4972696;28;20055;-71
2020/12/20 06:55:34;;;;;;;29.88;15.05;;;2.00;99.90;;;;;;4973927;28;20042;-70
2020/12/20 06:58:03;;;;;;;29.92;16.05;;;2.00;99.90;;;;;;4973708;28;20189;-70
2020/12/20 07:00:39;;;;;;;27.92;14.70;;;2.00;99.90;;;;;;4972964;28;20061;-71
2020/12/20 07:03:05;;;;;;;30.42;15.00;;;2.00;99.90;;;;;;4973769;28;20049;-71
2020/12/20 07:05:35;;;;;;;32.60;15.68;;;2.00;99.90;;;;;;4971574;28;20489;-71
2020/12/20 07:08:19;;;;;;;27.75;14.32;;;2.00;99.90;;;;;;4973095;28;20099;-71
2020/12/20 07:10:58;;;;;;;28.85;14.68;;;2.00;99.90;;;;;;4971194;28;20039;-70
2020/12/20 07:13:33;;;;;;;27.60;14.27;;;2.10;99.90;;;;;;4955915;28;20460;-71
2020/12/20 07:16:38;;;;;;;27.23;14.82;;;2.10;99.90;;;;;;4974075;28;20063;-72
2020/12/20 07:19:07;;;;;;;26.77;14.10;;;2.00;99.90;;;;;;4971135;28;20082;-70
2020/12/20 07:21:45;;;;;;;26.65;14.20;;;2.10;99.90;;;;;;4973966;28;20051;-71
2020/12/20 07:24:19;;;;;;;23.67;13.50;;;2.10;99.90;;;;;;4971493;28;20047;-71
2020/12/20 07:26:55;;;;;;;29.73;15.15;;;2.10;99.90;;;;;;4973305;28;20409;-71
2020/12/20 07:29:22;;;;;;;27.95;14.70;;;2.10;99.90;;;;;;4973482;28;20477;-71
2020/12/20 07:31:55;;;;;;;25.73;13.35;;;2.20;99.90;;;;;;4973526;28;20063;-70
2020/12/20 07:34:23;;;;;;;26.55;14.18;;;2.20;99.90;;;;;;4957191;28;20054;-70
2020/12/20 07:36:50;;;;;;;29.52;14.40;;;2.10;99.90;;;;;;4971906;28;20050;-70
2020/12/20 07:39:17;;;;;;;26.60;14.07;;;2.20;99.90;;;;;;4973556;28;20053;-69
2020/12/20 07:41:44;;;;;;;26.77;14.20;;;2.20;99.90;;;;;;4969403;28;20134;-69
2020/12/20 07:44:11;;;;;;;29.80;14.27;;;2.20;99.90;;;;;;4971408;28;20054;-70
2020/12/20 07:46:39;;;;;;;33.63;15.25;;;2.20;99.90;;;;;;4973342;28;20134;-70
2020/12/20 07:49:13;;;;;;;32.35;15.85;;;2.30;99.90;;;;;;4970388;28;20050;-70
2020/12/20 07:51:40;;;;;;;32.50;16.38;;;2.30;99.90;;;;;;4955009;28;20050;-70
2020/12/20 07:54:11;;;;;;;29.67;15.05;;;2.30;99.90;;;;;;4972046;28;20051;-70
2020/12/20 07:56:43;;;;;;;29.13;15.00;;;2.30;99.90;;;;;;4973006;28;20515;-71
2020/12/20 07:59:14;;;;;;;29.50;14.35;;;2.40;99.90;;;;;;4972849;28;20055;-70
2020/12/20 08:01:45;;;;;;;26.83;14.30;;;2.40;99.90;;;;;;4972741;28;20066;-69
2020/12/20 08:04:18;;;;;;;27.15;15.07;;;2.40;99.90;;;;;;4954540;28;20057;-70
2020/12/20 08:06:50;;;;;;;26.23;14.82;;;2.40;99.90;;;;;;4972448;28;20102;-71
2020/12/20 08:09:26;;;;;;;29.20;15.48;;;2.50;99.90;;;;;;4972640;28;20051;-70
2020/12/20 08:11:54;;;;;;;34.03;16.80;;;2.50;99.90;;;;;;4973380;28;20069;-70
2020/12/20 08:14:22;;;;;;;29.55;15.68;;;2.50;99.90;;;;;;4971884;28;20055;-70
2020/12/20 08:16:51;;;;;;;35.38;17.08;;;2.50;99.90;;;;;;4973012;28;20046;-70
2020/12/20 08:19:28;;;;;;;28.65;15.10;;;2.50;99.90;;;;;;4972421;28;20416;-72
2020/12/20 08:22:15;;;;;;;31.17;15.80;;;2.50;99.90;;;;;;4953137;28;20098;-69
2020/12/20 08:24:44;;;;;;;32.88;16.42;;;2.60;99.90;;;;;;4971145;28;20583;-70
2020/12/20 08:27:28;;;;;;;29.30;14.63;;;2.60;99.90;;;;;;4973186;28;20050;-66
2020/12/20 08:30:00;;;;;;;27.00;14.32;;;2.60;99.90;;;;;;4971829;28;20054;-67
2020/12/20 08:32:37;;;;;;;28.45;15.13;;;2.70;99.90;;;;;;4970289;28;20062;-66
2020/12/20 08:35:29;;;;;;;35.30;16.30;;;2.70;99.90;;;;;;4972368;28;20066;-66
2020/12/20 08:38:00;;;;;;;25.85;14.88;;;2.80;99.90;;;;;;4972046;28;20173;-67
2020/12/20 08:40:31;;;;;;;26.33;13.70;;;2.80;99.90;;;;;;4972522;28;20474;-67
2020/12/20 08:43:00;;;;;;;26.45;14.40;;;2.80;99.90;;;;;;4964068;28;20382;-67
2020/12/20 08:45:30;;;;;;;26.33;14.48;;;2.80;99.90;;;;;;4972696;28;20489;-66
2020/12/20 08:48:02;;;;;;;27.88;14.70;;;2.90;99.90;;;;;;4965485;28;20420;-68
2020/12/20 08:50:31;;;;;;;26.23;14.68;;;3.00;99.90;;;;;;4965233;28;20054;-67
2020/12/20 08:53:05;;;;;;;29.42;15.05;;;3.00;99.90;;;;;;4970170;28;20137;-67
2020/12/20 08:55:33;;;;;;;25.42;13.90;;;3.00;99.90;;;;;;4972366;28;20375;-67
2020/12/20 08:58:07;;;;;;;25.85;14.00;;;3.10;99.90;;;;;;4970035;28;20413;-67
2020/12/20 09:00:35;;;;;;;28.30;15.07;;;3.10;99.90;;;;;;4969265;28;20580;-68
2020/12/20 09:03:03;;;;;;;28.20;15.38;;;3.10;99.90;;;;;;4970092;28;20062;-67
2020/12/20 09:05:33;;;;;;;28.98;15.68;;;3.10;99.90;;;;;;4972153;28;20047;-67
2020/12/20 09:08:00;;;;;;;25.13;14.68;;;3.10;99.90;;;;;;4966809;28;20473;-67
2020/12/20 09:10:30;;;;;;;27.80;14.48;;;3.20;99.90;;;;;;4966838;28;20135;-67
2020/12/20 09:12:59;;;;;;;25.08;14.30;;;3.20;99.90;;;;;;4966434;28;20069;-68
2020/12/20 09:15:28;;;;;;;27.00;14.18;;;3.30;99.90;;;;;;4971617;28;20050;-70
2020/12/20 09:17:57;;;;;;;27.48;13.88;;;3.40;99.90;;;;;;4972349;28;20074;-71
2020/12/20 09:20:27;;;;;;;28.05;14.82;;;3.40;99.90;;;;;;4972191;28;20515;-71
2020/12/20 09:23:00;;;;;;;26.77;14.75;;;3.40;99.90;;;;;;4971674;28;20058;-71
2020/12/20 09:25:33;;;;;;;26.38;14.98;;;3.50;99.90;;;;;;4972059;28;20519;-71
2020/12/20 09:28:04;;;;;;;25.85;14.23;;;3.50;99.90;;;;;;4970630;28;20375;-71
2020/12/20 09:30:35;;;;;;;25.05;14.10;;;3.50;99.90;;;;;;4971993;28;20054;-70
2020/12/20 09:33:17;;;;;;;24.63;14.13;;;3.60;99.90;;;;;;4954257;28;20054;-71
2020/12/20 09:36:05;;;;;;;25.75;13.77;;;3.60;99.90;;;;;;4954600;28;20059;-70
2020/12/20 09:38:50;;;;;;;23.88;13.88;;;3.70;99.90;;;;;;4971306;28;20051;-71
2020/12/20 09:41:21;;;;;;;24.83;13.77;;;3.80;99.90;;;;;;4970054;28;20047;-72
2020/12/20 09:43:50;;;;;;;24.98;14.05;;;3.80;99.90;;;;;;4953293;28;20054;-71
2020/12/20 09:46:28;;;;;;;24.30;14.00;;;3.80;99.90;;;;;;4967675;28;20054;-71
2020/12/20 09:48:57;;;;;;;23.65;13.32;;;3.80;99.90;;;;;;4970849;28;20444;-71
2020/12/20 09:51:24;;;;;;;27.58;15.02;;;3.90;99.90;;;;;;4970959;28;20051;-70
2020/12/20 09:53:54;;;;;;;23.48;13.82;;;3.90;99.90;;;;;;4971438;28;20279;-70
2020/12/20 09:56:20;;;;;;;23.65;14.05;;;4.00;99.90;;;;;;4956986;28;20051;-73
2020/12/20 09:58:47;;;;;;;24.15;13.55;;;4.10;99.90;;;;;;4953195;28;20142;-71
2020/12/20 10:01:18;;;;;;;22.90;12.80;;;4.20;99.90;;;;;;4971058;28;20043;-71
2020/12/20 10:03:44;;;;;;;23.27;13.18;;;4.20;99.90;;;;;;4971348;28;20054;-71
2020/12/20 10:06:11;;;;;;;25.92;14.45;;;4.40;99.90;;;;;;4972140;28;20065;-71
2020/12/20 10:08:37;;;;;;;24.08;13.70;;;4.50;99.90;;;;;;4958650;28;20166;-70
2020/12/20 10:11:04;;;;;;;24.42;13.90;;;4.60;99.90;;;;;;4972756;28;20055;-71
2020/12/20 10:13:31;;;;;;;24.60;13.27;;;4.60;99.90;;;;;;4973812;28;20608;-69
2020/12/20 10:15:57;;;;;;;20.02;12.30;;;4.60;99.90;;;;;;4975822;28;20428;-70
2020/12/20 10:18:24;;;;;;;21.13;12.75;;;4.60;99.90;;;;;;4981681;28;20114;-71
2020/12/20 10:20:51;;;;;;;25.35;14.38;;;4.70;99.90;;;;;;4982329;28;20408;-70
2020/12/20 10:23:17;;;;;;;21.67;13.10;;;4.80;99.90;;;;;;4974801;28;20058;-71
2020/12/20 10:25:44;;;;;;;23.33;14.05;;;4.80;99.90;;;;;;4974532;28;20791;-71
2020/12/20 10:28:10;;;;;;;23.50;12.88;;;4.80;99.90;;;;;;4974792;28;20400;-73
2020/12/20 10:30:37;;;;;;;24.40;14.00;;;4.80;99.90;;;;;;4975705;28;20358;-71
2020/12/20 10:33:04;;;;;;;24.40;14.52;;;4.90;99.90;;;;;;4957492;28;20074;-71
2020/12/20 10:35:31;;;;;;;25.08;15.20;;;4.90;99.90;;;;;;4975171;28;20138;-70
2020/12/20 10:37:58;;;;;;;24.75;14.25;;;5.00;99.90;;;;;;4974158;28;20069;-70
2020/12/20 10:40:26;;;;;;;21.25;13.43;;;5.00;99.90;;;;;;4971506;28;20046;-69
2020/12/20 10:42:54;;;;;;;22.83;13.18;;;5.00;99.90;;;;;;4975636;28;20118;-68
2020/12/20 10:45:21;;;;;;;20.73;13.55;;;5.10;99.90;;;;;;4969905;28;20051;-68
2020/12/20 10:47:47;;;;;;;21.30;13.27;;;5.10;99.90;;;;;;4974021;28;20047;-68
2020/12/20 10:50:14;;;;;;;23.17;13.75;;;5.00;99.90;;;;;;4972720;28;20046;-68
2020/12/20 10:52:40;;;;;;;23.75;14.48;;;5.00;99.90;;;;;;4972724;28;20054;-68
2020/12/20 10:55:08;;;;;;;22.60;14.13;;;5.00;99.90;;;;;;4974237;28;20481;-68
2020/12/20 10:57:34;;;;;;;22.42;13.70;;;5.00;99.90;;;;;;4973485;28;20054;-68
2020/12/20 11:00:04;;;;;;;24.67;14.20;;;5.10;99.90;;;;;;4970920;28;20054;-68
2020/12/20 11:02:30;;;;;;;26.10;14.68;;;5.10;99.90;;;;;;4974152;28;20055;-67
2020/12/20 11:04:56;;;;;;;22.40;13.02;;;5.20;99.90;;;;;;4976022;28;20521;-69
2020/12/20 11:07:23;;;;;;;22.98;12.85;;;5.20;99.90;;;;;;4973724;28;20051;-69
2020/12/20 11:09:49;;;;;;;33.45;19.85;;;5.20;99.90;;;;;;4974000;28;20183;-70
2020/12/20 11:12:16;;;;;;;25.13;14.77;;;5.20;99.90;;;;;;4973102;28;20038;-69
2020/12/20 11:14:42;;;;;;;22.38;13.20;;;5.10;99.90;;;;;;4974293;28;20062;-69
2020/12/20 11:17:09;;;;;;;21.45;13.38;;;5.20;99.90;;;;;;4972181;28;20051;-69
2020/12/20 11:19:35;;;;;;;20.33;12.23;;;5.20;99.90;;;;;;4974966;28;20420;-70
2020/12/20 11:22:02;;;;;;;21.40;13.38;;;5.20;99.90;;;;;;4973749;28;20054;-69
2020/12/20 11:24:28;;;;;;;21.27;13.48;;;5.20;99.90;;;;;;4974565;28;20078;-69
2020/12/20 11:26:55;;;;;;;21.05;13.18;;;5.30;99.90;;;;;;4974302;28;20046;-70
2020/12/20 11:29:22;;;;;;;20.77;12.50;;;5.30;99.90;;;;;;4952341;28;20046;-70
2020/12/20 11:31:48;;;;;;;20.42;12.80;;;5.40;99.90;;;;;;4977209;28;20065;-69
2020/12/20 11:34:15;;;;;;;21.20;12.88;;;5.40;99.90;;;;;;4973928;28;20053;-70
2020/12/20 11:36:43;;;;;;;20.92;12.77;;;5.50;99.90;;;;;;4973919;28;20050;-69
2020/12/20 11:39:12;;;;;;;24.52;12.65;;;5.50;99.90;;;;;;4974113;28;20412;-71
2020/12/20 11:41:39;;;;;;;23.25;14.05;;;5.60;99.90;;;;;;4964925;28;20050;-70
2020/12/20 11:44:07;;;;;;;22.02;12.68;;;5.60;99.90;;;;;;4956921;28;20051;-70
2020/12/20 11:46:34;;;;;;;20.88;13.02;;;5.80;99.90;;;;;;4973669;28;20079;-69
2020/12/20 11:49:02;;;;;;;20.38;12.05;;;5.90;99.90;;;;;;4972666;28;20457;-70
2020/12/20 11:51:29;;;;;;;20.20;12.68;;;6.00;99.90;;;;;;4972916;28;20049;-69
2020/12/20 11:54:00;;;;;;;27.90;17.33;;;6.10;99.90;;;;;;4972516;28;20053;-70
2020/12/20 11:56:27;;;;;;;29.02;19.10;;;6.40;99.90;;;;;;4974137;28;20080;-69
2020/12/20 11:58:54;;;;;;;21.65;13.23;;;6.70;99.90;;;;;;4974140;28;20047;-70
2020/12/20 12:01:24;;;;;;;18.98;12.43;;;7.10;99.90;;;;;;4971282;28;20051;-69
2020/12/20 12:03:51;;;;;;;19.58;12.30;;;7.30;99.90;;;;;;4972597;28;20043;-69
2020/12/20 12:06:18;;;;;;;19.88;13.00;;;7.40;99.90;;;;;;4974492;28;20459;-69
2020/12/20 12:08:45;;;;;;;17.88;12.43;;;7.50;99.90;;;;;;4973783;28;20137;-69
2020/12/20 12:11:22;;;;;;;20.45;12.70;;;7.70;99.90;;;;;;4974121;28;20051;-70
2020/12/20 12:13:49;;;;;;;19.85;13.48;;;7.90;99.90;;;;;;4972222;28;20057;-70
2020/12/20 12:16:18;;;;;;;22.70;14.98;;;8.40;99.90;;;;;;4974307;28;20068;-69
2020/12/20 12:18:45;;;;;;;19.98;13.02;;;8.60;99.90;;;;;;4972726;28;20057;-69
2020/12/20 12:21:14;;;;;;;17.35;11.90;;;8.60;99.90;;;;;;4973703;28;20051;-66
2020/12/20 12:23:45;;;;;;;18.73;12.57;;;8.50;99.90;;;;;;4972590;28;20130;-67
2020/12/20 12:26:16;;;;;;;18.60;11.77;;;8.20;99.90;;;;;;4951006;28;20047;-69
2020/12/20 12:28:44;;;;;;;18.83;13.02;;;8.30;99.90;;;;;;4967365;28;20058;-70
2020/12/20 12:31:10;;;;;;;17.33;11.93;;;8.70;99.90;;;;;;4972210;28;20057;-69
2020/12/20 12:33:37;;;;;;;19.35;13.73;;;9.20;99.90;;;;;;4971930;28;20097;-69
2020/12/20 12:36:05;;;;;;;21.35;13.02;;;9.30;99.90;;;;;;4958488;28;20065;-69
2020/12/20 12:38:31;;;;;;;20.10;12.55;;;9.30;99.90;;;;;;4972769;28;20065;-69
2020/12/20 12:40:59;;;;;;;16.90;12.38;;;9.10;99.90;;;;;;4971543;28;20130;-68
2020/12/20 12:43:25;;;;;;;19.40;13.52;;;9.10;99.90;;;;;;4958409;28;20054;-69
2020/12/20 12:45:52;;;;;;;17.33;12.70;;;9.10;99.90;;;;;;4972323;28;20050;-70
2020/12/20 12:48:18;;;;;;;25.10;16.60;;;9.00;99.90;;;;;;4971999;28;20043;-66